Time,TemperatureF,DewpointF,PressureIn,WindDirection,WindDirectionDegrees,WindSpeedMPH,WindSpeedGustMPH,Humidity,HourlyPrecipIn,Conditions,Clouds,dailyrainin,SolarRadiationWatts/m^2,SoftwareType,DateUTC
2013-04-25 00:09:00,52.2,48.0,29.52,SSW,208,7.0,11.0,84,0.00,,,0.00,0,weatherlink.com 1.10,2013-04-25 04:09:00,
2013-04-25 00:24:00,52.1,48.0,29.52,SSW,209,1.0,9.0,85,0.00,,,0.00,0,weatherlink.com 1.10,2013-04-25 04:24:00,
2013-04-25 00:39:00,52.0,48.0,29.52,SE,125,1.0,5.0,85,0.00,,,0.00,0,weatherlink.com 1.10,2013-04-25 04:39:00,
2013-04-25 00:54:00,51.9,48.0,29.51,ESE,113,7.0,8.0,87,0.00,,,0.00,0,weatherlink.com 1.10,2013-04-25 04:54:00,
2013-04-25 01:09:00,52.2,49.0,29.50,SW,231,7.0,7.0,88,0.00,,,0.00,0,weatherlink.com 1.10,2013-04-25 05:09:00,
2013-04-25 01:24:00,52.5,49.0,29.50,SSW,194,0.0,10.0,89,0.00,,,0.00,0,weatherlink.com 1.10,2013-04-25 05:24:00,
2013-04-25 01:39:00,53.3,50.0,29.50,SW,217,3.0,11.0,89,0.00,,,0.00,0,weatherlink.com 1.10,2013-04-25 05:39:00,
2013-04-25 01:54:00,54.0,51.0,29.50,SSW,213,4.0,14.0,89,0.00,,,0.00,0,weatherlink.com 1.10,2013-04-25 05:54:00,
2013-04-25 02:09:00,54.4,51.0,29.50,SW,231,3.0,14.0,88,0.00,,,0.00,0,weatherlink.com 1.10,2013-04-25 06:09:00,
2013-04-25 02:24:00,54.5,51.0,29.50,SSW,208,2.0,12.0,88,0.00,,,0.00,0,weatherlink.com 1.10,2013-04-25 06:24:00,
2013-04-25 02:39:00,54.5,51.0,29.50,ESE,111,1.0,13.0,89,0.00,,,0.00,0,weatherlink.com 1.10,2013-04-25 06:39:00,
2013-04-25 02:54:00,54.6,52.0,29.51,SSW,194,5.0,14.0,89,0.00,,,0.00,0,weatherlink.com 1.10,2013-04-25 06:54:00,
2013-04-25 03:09:00,54.8,52.0,29.52,WSW,245,12.0,12.0,89,0.00,,,0.00,0,weatherlink.com 1.10,2013-04-25 07:09:00,
2013-04-25 03:24:00,55.2,52.0,29.52,SSW,198,3.0,12.0,88,0.00,,,0.00,0,weatherlink.com 1.10,2013-04-25 07:24:00,
2013-04-25 03:39:00,55.4,52.0,29.53,SSW,208,5.0,14.0,88,0.00,,,0.00,0,weatherlink.com 1.10,2013-04-25 07:39:00,
2013-04-25 03:54:00,55.3,52.0,29.53,SW,215,5.0,10.0,89,0.00,,,0.00,0,weatherlink.com 1.10,2013-04-25 07:54:00,
2013-04-25 04:09:00,55.1,53.0,29.54,SW,221,2.0,5.0,91,0.01,,,0.01,0,weatherlink.com 1.10,2013-04-25 08:09:00,
2013-04-25 04:24:00,54.8,53.0,29.54,SW,229,2.0,8.0,92,0.02,,,0.02,0,weatherlink.com 1.10,2013-04-25 08:24:00,
2013-04-25 04:39:00,54.6,52.0,29.55,WSW,258,0.0,9.0,92,0.02,,,0.02,0,weatherlink.com 1.10,2013-04-25 08:39:00,
2013-04-25 04:54:00,54.5,52.0,29.57,SW,234,1.0,13.0,91,0.02,,,0.02,0,weatherlink.com 1.10,2013-04-25 08:54:00,
2013-04-25 05:09:00,53.3,49.0,29.59,NW,304,14.0,15.0,84,0.01,,,0.02,0,weatherlink.com 1.10,2013-04-25 09:09:00,
2013-04-25 05:24:00,51.4,45.0,29.62,WNW,302,11.0,16.0,80,0.00,,,0.02,0,weatherlink.com 1.10,2013-04-25 09:24:00,
2013-04-25 05:39:00,50.3,43.0,29.63,NW,307,4.0,17.0,77,0.00,,,0.02,0,weatherlink.com 1.10,2013-04-25 09:39:00,
2013-04-25 05:54:00,49.4,41.0,29.63,West,267,3.0,16.0,74,0.00,,,0.02,0,weatherlink.com 1.10,2013-04-25 09:54:00,
2013-04-25 06:10:00,48.3,40.0,29.65,NW,304,7.0,11.0,73,0.00,,,0.02,12,weatherlink.com 1.10,2013-04-25 10:10:00,
2013-04-25 06:25:00,47.7,40.0,29.67,West,270,4.0,12.0,74,0.00,,,0.02,19,weatherlink.com 1.10,2013-04-25 10:25:00,
2013-04-25 06:40:00,47.3,39.0,29.68,NW,314,0.0,7.0,74,0.00,,,0.02,51,weatherlink.com 1.10,2013-04-25 10:40:00,
2013-04-25 06:55:00,47.5,39.0,29.69,WNW,296,5.0,10.0,73,0.00,,,0.02,72,weatherlink.com 1.10,2013-04-25 10:55:00,
2013-04-25 07:10:00,47.6,38.0,29.69,West,280,1.0,16.0,70,0.00,,,0.02,132,weatherlink.com 1.10,2013-04-25 11:10:00,
2013-04-25 07:25:00,47.6,38.0,29.70,NNW,338,7.0,13.0,69,0.00,,,0.02,40,weatherlink.com 1.10,2013-04-25 11:25:00,
2013-04-25 07:40:00,47.4,37.0,29.70,SW,236,4.0,16.0,68,0.00,,,0.02,100,weatherlink.com 1.10,2013-04-25 11:40:00,
2013-04-25 07:55:00,47.4,37.0,29.72,WSW,257,2.0,11.0,68,0.00,,,0.02,63,weatherlink.com 1.10,2013-04-25 11:55:00,
2013-04-25 08:10:00,47.4,36.0,29.72,NW,308,6.0,15.0,65,0.00,,,0.02,141,weatherlink.com 1.10,2013-04-25 12:10:00,
2013-04-25 08:25:00,47.3,36.0,29.73,NNW,345,0.0,8.0,65,0.00,,,0.02,162,weatherlink.com 1.10,2013-04-25 12:25:00,
2013-04-25 08:40:00,47.4,35.0,29.73,NW,304,7.0,18.0,63,0.00,,,0.02,151,weatherlink.com 1.10,2013-04-25 12:40:00,
2013-04-25 08:55:00,48.1,36.0,29.74,NNW,327,4.0,10.0,64,0.00,,,0.02,519,weatherlink.com 1.10,2013-04-25 12:55:00,
2013-04-25 09:10:00,49.7,37.0,29.74,WNW,292,5.0,11.0,61,0.00,,,0.02,568,weatherlink.com 1.10,2013-04-25 13:10:00,
2013-04-25 09:25:00,50.6,36.0,29.74,NW,306,8.0,13.0,58,0.00,,,0.02,606,weatherlink.com 1.10,2013-04-25 13:25:00,
2013-04-25 09:40:00,51.7,38.0,29.75,West,277,6.0,9.0,59,0.00,,,0.02,645,weatherlink.com 1.10,2013-04-25 13:40:00,
2013-04-25 09:55:00,52.8,36.0,29.75,NW,306,9.0,18.0,53,0.00,,,0.02,684,weatherlink.com 1.10,2013-04-25 13:55:00,
2013-04-25 10:10:00,53.1,37.0,29.75,NNE,33,7.0,13.0,54,0.00,,,0.02,726,weatherlink.com 1.10,2013-04-25 14:10:00,
2013-04-25 10:25:00,53.2,37.0,29.76,NE,51,8.0,16.0,55,0.00,,,0.02,759,weatherlink.com 1.10,2013-04-25 14:25:00,
2013-04-25 10:40:00,53.9,37.0,29.76,West,281,5.0,12.0,53,0.00,,,0.02,788,weatherlink.com 1.10,2013-04-25 14:40:00,
2013-04-25 10:56:00,54.7,36.0,29.76,North,355,8.0,15.0,49,0.00,,,0.02,816,weatherlink.com 1.10,2013-04-25 14:56:00,
2013-04-25 11:11:00,55.3,36.0,29.76,West,266,8.0,12.0,48,0.00,,,0.02,840,weatherlink.com 1.10,2013-04-25 15:11:00,
2013-04-25 11:26:00,55.9,36.0,29.77,NW,318,2.0,11.0,48,0.00,,,0.02,863,weatherlink.com 1.10,2013-04-25 15:26:00,
2013-04-25 11:41:00,56.7,36.0,29.77,NNW,348,6.0,14.0,46,0.00,,,0.02,882,weatherlink.com 1.10,2013-04-25 15:41:00,
2013-04-25 11:56:00,56.7,36.0,29.77,NW,326,4.0,15.0,47,0.00,,,0.02,895,weatherlink.com 1.10,2013-04-25 15:56:00,
2013-04-25 12:11:00,57.3,34.0,29.77,SW,215,6.0,16.0,42,0.00,,,0.02,907,weatherlink.com 1.10,2013-04-25 16:11:00,
2013-04-25 12:41:00,58.3,37.0,29.78,NW,306,7.0,19.0,45,0.00,,,0.02,914,weatherlink.com 1.10,2013-04-25 16:41:00,
2013-04-25 12:56:00,59.0,36.0,29.78,West,267,3.0,12.0,43,0.00,,,0.02,912,weatherlink.com 1.10,2013-04-25 16:56:00,
2013-04-25 13:11:00,59.6,35.0,29.78,WSW,254,7.0,9.0,40,0.00,,,0.02,912,weatherlink.com 1.10,2013-04-25 17:11:00,
2013-04-25 13:26:00,60.2,32.0,29.78,NW,319,4.0,14.0,34,0.00,,,0.02,909,weatherlink.com 1.10,2013-04-25 17:26:00,
2013-04-25 13:41:00,60.3,37.0,29.78,West,265,6.0,13.0,42,0.00,,,0.02,898,weatherlink.com 1.10,2013-04-25 17:41:00,
2013-04-25 13:56:00,61.0,35.0,29.77,North,360,3.0,12.0,38,0.00,,,0.02,889,weatherlink.com 1.10,2013-04-25 17:56:00,
2013-04-25 14:11:00,61.1,32.0,29.77,NNW,329,5.0,10.0,34,0.00,,,0.02,868,weatherlink.com 1.10,2013-04-25 18:11:00,
2013-04-25 14:26:00,61.9,34.0,29.77,NW,312,2.0,10.0,35,0.00,,,0.02,853,weatherlink.com 1.10,2013-04-25 18:26:00,
2013-04-25 14:41:00,62.6,31.0,29.77,North,5,8.0,10.0,31,0.00,,,0.02,749,weatherlink.com 1.10,2013-04-25 18:41:00,
2013-04-25 14:56:00,62.9,33.0,29.77,WSW,257,5.0,13.0,33,0.00,,,0.02,812,weatherlink.com 1.10,2013-04-25 18:56:00,
2013-04-25 15:11:00,63.1,28.0,29.77,NW,310,3.0,11.0,27,0.00,,,0.02,773,weatherlink.com 1.10,2013-04-25 19:11:00,
2013-04-25 15:26:00,62.8,29.0,29.77,West,268,3.0,11.0,28,0.00,,,0.02,737,weatherlink.com 1.10,2013-04-25 19:26:00,
2013-04-25 15:41:00,63.1,29.0,29.77,West,274,7.0,10.0,28,0.00,,,0.02,701,weatherlink.com 1.10,2013-04-25 19:41:00,
2013-04-25 15:56:00,63.1,32.0,29.77,NE,39,7.0,10.0,31,0.00,,,0.02,657,weatherlink.com 1.10,2013-04-25 19:56:00,
2013-04-25 16:11:00,62.6,30.0,29.77,NW,321,1.0,8.0,29,0.00,,,0.02,613,weatherlink.com 1.10,2013-04-25 20:11:00,
2013-04-25 16:26:00,63.4,31.0,29.78,West,279,2.0,12.0,30,0.00,,,0.02,573,weatherlink.com 1.10,2013-04-25 20:26:00,
2013-04-25 16:41:00,63.2,33.0,29.78,NNW,339,5.0,8.0,32,0.00,,,0.02,524,weatherlink.com 1.10,2013-04-25 20:41:00,
2013-04-25 16:56:00,63.9,33.0,29.79,NNW,344,1.0,7.0,31,0.00,,,0.02,480,weatherlink.com 1.10,2013-04-25 20:56:00,
2013-04-25 17:11:00,64.1,32.0,29.79,West,259,0.0,9.0,30,0.00,,,0.02,429,weatherlink.com 1.10,2013-04-25 21:11:00,
2013-04-25 17:26:00,63.7,31.0,29.79,West,261,1.0,11.0,29,0.00,,,0.02,381,weatherlink.com 1.10,2013-04-25 21:26:00,
2013-04-25 17:41:00,63.3,29.0,29.80,West,267,9.0,12.0,27,0.00,,,0.02,330,weatherlink.com 1.10,2013-04-25 21:41:00,
2013-04-25 17:56:00,62.7,29.0,29.80,West,279,3.0,10.0,28,0.00,,,0.02,281,weatherlink.com 1.10,2013-04-25 21:56:00,
2013-04-25 18:11:00,62.6,28.0,29.80,NW,308,2.0,9.0,27,0.00,,,0.02,227,weatherlink.com 1.10,2013-04-25 22:11:00,
2013-04-25 18:26:00,62.3,26.0,29.81,SW,217,5.0,8.0,25,0.00,,,0.02,165,weatherlink.com 1.10,2013-04-25 22:26:00,
2013-04-25 18:41:00,61.4,26.0,29.82,SW,223,4.0,9.0,26,0.00,,,0.02,111,weatherlink.com 1.10,2013-04-25 22:41:00,
2013-04-25 18:57:00,60.8,26.0,29.82,NNW,328,3.0,7.0,27,0.00,,,0.02,63,weatherlink.com 1.10,2013-04-25 22:57:00,
2013-04-25 19:12:00,60.0,25.0,29.83,WSW,254,4.0,5.0,26,0.00,,,0.02,21,weatherlink.com 1.10,2013-04-25 23:12:00,
2013-04-25 19:27:00,58.6,25.0,29.83,WSW,238,3.0,7.0,28,0.00,,,0.02,11,weatherlink.com 1.10,2013-04-25 23:27:00,
2013-04-25 19:42:00,57.3,25.0,29.84,West,264,2.0,3.0,29,0.00,,,0.02,0,weatherlink.com 1.10,2013-04-25 23:42:00,
2013-04-25 19:57:00,56.2,23.0,29.84,West,268,2.0,5.0,28,0.00,,,0.02,0,weatherlink.com 1.10,2013-04-25 23:57:00,
2013-04-25 20:12:00,55.1,23.0,29.85,WSW,258,0.0,5.0,29,0.00,,,0.02,0,weatherlink.com 1.10,2013-04-26 00:12:00,
2013-04-25 20:27:00,54.2,25.0,29.86,WSW,258,0.0,3.0,33,0.00,,,0.02,0,weatherlink.com 1.10,2013-04-26 00:27:00,
2013-04-25 20:42:00,52.5,27.0,29.87,West,259,1.0,3.0,38,0.00,,,0.02,0,weatherlink.com 1.10,2013-04-26 00:42:00,
2013-04-25 20:57:00,50.3,30.0,29.88,West,259,1.0,3.0,46,0.00,,,0.02,0,weatherlink.com 1.10,2013-04-26 00:57:00,
2013-04-25 21:12:00,49.4,29.0,29.88,West,259,0.0,2.0,45,0.00,,,0.02,0,weatherlink.com 1.10,2013-04-26 01:12:00,
2013-04-25 21:27:00,48.5,30.0,29.89,West,259,0.0,1.0,49,0.00,,,0.02,0,weatherlink.com 1.10,2013-04-26 01:27:00,
2013-04-25 21:42:00,47.1,31.0,29.90,West,259,0.0,0.0,54,0.00,,,0.02,0,weatherlink.com 1.10,2013-04-26 01:42:00,
2013-04-25 21:57:00,45.5,30.0,29.91,West,259,0.0,1.0,56,0.00,,,0.02,0,weatherlink.com 1.10,2013-04-26 01:57:00,
2013-04-25 22:12:00,44.0,31.0,29.91,West,259,0.0,3.0,60,0.00,,,0.02,0,weatherlink.com 1.10,2013-04-26 02:12:00,
2013-04-25 22:27:00,42.8,32.0,29.91,West,259,2.0,3.0,65,0.00,,,0.02,0,weatherlink.com 1.10,2013-04-26 02:27:00,
2013-04-25 22:42:00,41.6,32.0,29.92,West,259,1.0,2.0,68,0.00,,,0.02,0,weatherlink.com 1.10,2013-04-26 02:42:00,
2013-04-25 22:57:00,40.6,32.0,29.92,West,259,1.0,1.0,72,0.00,,,0.02,0,weatherlink.com 1.10,2013-04-26 02:57:00,
2013-04-25 23:12:00,39.9,32.0,29.93,West,259,2.0,2.0,73,0.00,,,0.02,0,weatherlink.com 1.10,2013-04-26 03:12:00,
2013-04-25 23:27:00,39.6,32.0,29.93,West,259,1.0,2.0,73,0.00,,,0.02,0,weatherlink.com 1.10,2013-04-26 03:27:00,
2013-04-25 23:42:00,39.2,32.0,29.93,West,259,0.0,3.0,74,0.00,,,0.02,0,weatherlink.com 1.10,2013-04-26 03:42:00,
2013-04-25 23:57:00,38.7,32.0,29.94,West,259,2.0,3.0,76,0.00,,,0.02,0,weatherlink.com 1.10,2013-04-26 03:57:00,